sensor_id;sensor_type;location;lat;lon;timestamp;temperature;humidity
45383;DHT22;42455;51.660;5.824;2022-08-14T00:05:04;22.4;66.5
45383;DHT22;42455;51.660;5.824;2022-08-14T00:10:13;22.4;66.5
45383;DHT22;42455;51.660;5.824;2022-08-14T00:15:19;22.4;66.5
45383;DHT22;42455;51.660;5.824;2022-08-14T00:20:24;22.4;66.5
45383;DHT22;42455;51.660;5.824;2022-08-14T00:25:28;22.4;66.5
45383;DHT22;42455;51.660;5.824;2022-08-14T00:30:35;22.4;66.5
45383;DHT22;42455;51.660;5.824;2022-08-14T00:35:41;22.4;66.5
45383;DHT22;42455;51.660;5.824;2022-08-14T00:40:48;22.4;67.0
45383;DHT22;42455;51.660;5.824;2022-08-14T00:45:53;22.4;67.0
45383;DHT22;42455;51.660;5.824;2022-08-14T00:50:59;22.3;67.0
45383;DHT22;42455;51.660;5.824;2022-08-14T00:56:07;22.3;67.5
45383;DHT22;42455;51.660;5.824;2022-08-14T01:01:12;22.3;67.5
45383;DHT22;42455;51.660;5.824;2022-08-14T01:06:18;22.2;67.5
45383;DHT22;42455;51.660;5.824;2022-08-14T01:11:25;22.2;68.0
45383;DHT22;42455;51.660;5.824;2022-08-14T01:16:30;22.2;68.0
45383;DHT22;42455;51.660;5.824;2022-08-14T01:21:39;22.1;68.0
45383;DHT22;42455;51.660;5.824;2022-08-14T01:26:42;22.1;68.0
45383;DHT22;42455;51.660;5.824;2022-08-14T01:31:48;22.1;68.0
45383;DHT22;42455;51.660;5.824;2022-08-14T01:36:53;22.0;68.5
45383;DHT22;42455;51.660;5.824;2022-08-14T01:41:59;22.0;68.5
45383;DHT22;42455;51.660;5.824;2022-08-14T01:47:08;21.9;68.5
45383;DHT22;42455;51.660;5.824;2022-08-14T01:52:12;21.8;69.0
45383;DHT22;42455;51.660;5.824;2022-08-14T01:57:18;21.8;69.0
45383;DHT22;42455;51.660;5.824;2022-08-14T02:02:24;21.7;69.0
45383;DHT22;42455;51.660;5.824;2022-08-14T02:07:30;21.7;69.5
45383;DHT22;42455;51.660;5.824;2022-08-14T02:12:38;21.7;69.5
45383;DHT22;42455;51.660;5.824;2022-08-14T02:17:43;21.6;70.0
45383;DHT22;42455;51.660;5.824;2022-08-14T02:22:49;21.6;70.0
45383;DHT22;42455;51.660;5.824;2022-08-14T02:27:55;21.6;70.0
45383;DHT22;42455;51.660;5.824;2022-08-14T02:33:02;21.5;70.5
45383;DHT22;42455;51.660;5.824;2022-08-14T02:38:08;21.5;70.5
45383;DHT22;42455;51.660;5.824;2022-08-14T02:43:14;21.4;70.5
45383;DHT22;42455;51.660;5.824;2022-08-14T02:48:20;21.3;71.0
45383;DHT22;42455;51.660;5.824;2022-08-14T02:53:26;21.2;71.0
45383;DHT22;42455;51.660;5.824;2022-08-14T02:58:35;21.1;71.5
45383;DHT22;42455;51.660;5.824;2022-08-14T03:03:39;21.1;71.5
45383;DHT22;42455;51.660;5.824;2022-08-14T03:08:45;21.0;72.0
45383;DHT22;42455;51.660;5.824;2022-08-14T03:13:51;21.0;72.0
45383;DHT22;42455;51.660;5.824;2022-08-14T03:18:57;20.9;72.5
45383;DHT22;42455;51.660;5.824;2022-08-14T03:24:03;20.9;72.5
45383;DHT22;42455;51.660;5.824;2022-08-14T03:29:15;20.8;72.5
45383;DHT22;42455;51.660;5.824;2022-08-14T03:34:14;20.7;73.0
45383;DHT22;42455;51.660;5.824;2022-08-14T03:39:20;20.7;73.0
45383;DHT22;42455;51.660;5.824;2022-08-14T03:44:26;20.6;73.0
45383;DHT22;42455;51.660;5.824;2022-08-14T03:49:33;20.5;73.5
45383;DHT22;42455;51.660;5.824;2022-08-14T03:54:39;20.5;73.5
45383;DHT22;42455;51.660;5.824;2022-08-14T03:59:45;20.4;74.0
45383;DHT22;42455;51.660;5.824;2022-08-14T04:04:51;20.4;74.0
45383;DHT22;42455;51.660;5.824;2022-08-14T04:09:58;20.4;74.0
45383;DHT22;42455;51.660;5.824;2022-08-14T04:15:04;20.3;74.5
45383;DHT22;42455;51.660;5.824;2022-08-14T04:20:10;20.3;74.5
45383;DHT22;42455;51.660;5.824;2022-08-14T04:25:16;20.3;75.0
45383;DHT22;42455;51.660;5.824;2022-08-14T04:30:22;20.2;75.0
45383;DHT22;42455;51.660;5.824;2022-08-14T04:35:29;20.2;75.5
45383;DHT22;42455;51.660;5.824;2022-08-14T04:40:35;20.1;75.5
45383;DHT22;42455;51.660;5.824;2022-08-14T04:45:41;20.1;75.5
45383;DHT22;42455;51.660;5.824;2022-08-14T04:50:49;20.1;76.0
45383;DHT22;42455;51.660;5.824;2022-08-14T04:55:54;20.1;76.0
45383;DHT22;42455;51.660;5.824;2022-08-14T05:01:02;20.0;76.5
45383;DHT22;42455;51.660;5.824;2022-08-14T05:06:08;20.0;76.5
45383;DHT22;42455;51.660;5.824;2022-08-14T05:11:12;20.0;77.0
45383;DHT22;42455;51.660;5.824;2022-08-14T05:16:18;20.0;77.0
45383;DHT22;42455;51.660;5.824;2022-08-14T05:21:23;20.0;77.5
45383;DHT22;42455;51.660;5.824;2022-08-14T05:26:30;20.0;78.0
45383;DHT22;42455;51.660;5.824;2022-08-14T05:31:35;20.0;78.0
45383;DHT22;42455;51.660;5.824;2022-08-14T05:36:41;20.1;78.5
45383;DHT22;42455;51.660;5.824;2022-08-14T05:41:47;20.1;78.5
45383;DHT22;42455;51.660;5.824;2022-08-14T05:46:53;20.2;78.5
45383;DHT22;42455;51.660;5.824;2022-08-14T05:52:00;20.3;79.0
45383;DHT22;42455;51.660;5.824;2022-08-14T05:57:06;20.4;79.0
45383;DHT22;42455;51.660;5.824;2022-08-14T06:02:12;20.5;79.5
45383;DHT22;42455;51.660;5.824;2022-08-14T06:07:18;20.7;79.5
45383;DHT22;42455;51.660;5.824;2022-08-14T06:12:25;20.8;80.0
45383;DHT22;42455;51.660;5.824;2022-08-14T06:17:31;21.0;80.0
45383;DHT22;42455;51.660;5.824;2022-08-14T06:22:37;21.2;80.0
45383;DHT22;42455;51.660;5.824;2022-08-14T06:27:45;21.4;80.0
45383;DHT22;42455;51.660;5.824;2022-08-14T06:32:50;21.7;80.0
45383;DHT22;42455;51.660;5.824;2022-08-14T06:37:57;21.9;80.0
45383;DHT22;42455;51.660;5.824;2022-08-14T06:43:05;22.2;80.0
45383;DHT22;42455;51.660;5.824;2022-08-14T06:48:13;22.5;79.0
45383;DHT22;42455;51.660;5.824;2022-08-14T06:53:14;22.9;78.5
45383;DHT22;42455;51.660;5.824;2022-08-14T06:58:20;23.3;78.0
45383;DHT22;42455;51.660;5.824;2022-08-14T07:03:27;23.7;77.5
45383;DHT22;42455;51.660;5.824;2022-08-14T07:08:33;24.1;77.0
45383;DHT22;42455;51.660;5.824;2022-08-14T07:13:39;24.5;76.0
45383;DHT22;42455;51.660;5.824;2022-08-14T07:18:44;24.9;75.0
45383;DHT22;42455;51.660;5.824;2022-08-14T07:23:50;25.2;74.5
45383;DHT22;42455;51.660;5.824;2022-08-14T07:28:57;25.6;73.5
45383;DHT22;42455;51.660;5.824;2022-08-14T07:34:03;25.9;72.5
45383;DHT22;42455;51.660;5.824;2022-08-14T07:39:09;26.3;72.0
45383;DHT22;42455;51.660;5.824;2022-08-14T07:44:15;26.6;71.5
45383;DHT22;42455;51.660;5.824;2022-08-14T07:49:22;27.0;70.5
45383;DHT22;42455;51.660;5.824;2022-08-14T07:54:28;27.3;69.5
45383;DHT22;42455;51.660;5.824;2022-08-14T07:59:34;27.7;69.0
45383;DHT22;42455;51.660;5.824;2022-08-14T08:04:48;0.0;0.0
45383;DHT22;42455;51.660;5.824;2022-08-14T08:09:55;28.3;68.0
45383;DHT22;42455;51.660;5.824;2022-08-14T08:14:54;28.6;67.0
45383;DHT22;42455;51.660;5.824;2022-08-14T08:19:59;28.9;66.0
45383;DHT22;42455;51.660;5.824;2022-08-14T08:25:05;29.1;65.0
45383;DHT22;42455;51.660;5.824;2022-08-14T08:30:12;29.4;64.0
45383;DHT22;42455;51.660;5.824;2022-08-14T08:35:19;29.5;63.5
45383;DHT22;42455;51.660;5.824;2022-08-14T08:40:26;29.7;62.5
45383;DHT22;42455;51.660;5.824;2022-08-14T08:45:31;29.9;62.5
45383;DHT22;42455;51.660;5.824;2022-08-14T08:50:38;30.0;61.5
45383;DHT22;42455;51.660;5.824;2022-08-14T08:55:44;30.2;61.5
45383;DHT22;42455;51.660;5.824;2022-08-14T09:00:54;30.4;61.0
45383;DHT22;42455;51.660;5.824;2022-08-14T09:05:55;30.6;61.0
45383;DHT22;42455;51.660;5.824;2022-08-14T09:11:03;30.8;60.0
45383;DHT22;42455;51.660;5.824;2022-08-14T09:16:06;30.9;60.0
45383;DHT22;42455;51.660;5.824;2022-08-14T09:21:12;31.0;60.0
45383;DHT22;42455;51.660;5.824;2022-08-14T09:26:17;31.2;58.5
45383;DHT22;42455;51.660;5.824;2022-08-14T09:31:25;31.3;58.5
45383;DHT22;42455;51.660;5.824;2022-08-14T09:36:42;31.4;58.0
45383;DHT22;42455;51.660;5.824;2022-08-14T09:42:22;31.6;58.0
45383;DHT22;42455;51.660;5.824;2022-08-14T09:46:50;31.8;57.5
45383;DHT22;42455;51.660;5.824;2022-08-14T09:51:48;31.9;56.5
45383;DHT22;42455;51.660;5.824;2022-08-14T09:56:54;32.1;57.0
45383;DHT22;42455;51.660;5.824;2022-08-14T10:02:00;32.2;56.5
45383;DHT22;42455;51.660;5.824;2022-08-14T10:07:07;32.3;55.5
45383;DHT22;42455;51.660;5.824;2022-08-14T10:12:13;32.4;55.5
45383;DHT22;42455;51.660;5.824;2022-08-14T10:17:22;32.6;55.0
45383;DHT22;42455;51.660;5.824;2022-08-14T10:22:25;32.7;55.0
45383;DHT22;42455;51.660;5.824;2022-08-14T10:27:32;32.9;54.5
45383;DHT22;42455;51.660;5.824;2022-08-14T10:32:42;32.9;54.0
45383;DHT22;42455;51.660;5.824;2022-08-14T10:37:46;33.0;53.0
45383;DHT22;42455;51.660;5.824;2022-08-14T10:42:50;33.0;51.5
45383;DHT22;42455;51.660;5.824;2022-08-14T10:47:57;33.1;52.0
45383;DHT22;42455;51.660;5.824;2022-08-14T10:53:03;33.2;52.5
45383;DHT22;42455;51.660;5.824;2022-08-14T10:58:09;33.3;51.0
45383;DHT22;42455;51.660;5.824;2022-08-14T11:03:15;33.4;50.5
45383;DHT22;42455;51.660;5.824;2022-08-14T11:08:29;33.6;49.5
45383;DHT22;42455;51.660;5.824;2022-08-14T11:13:29;33.8;49.5
45383;DHT22;42455;51.660;5.824;2022-08-14T11:18:35;33.9;48.5
45383;DHT22;42455;51.660;5.824;2022-08-14T11:23:38;33.9;48.0
45383;DHT22;42455;51.660;5.824;2022-08-14T11:28:46;34.0;48.5
45383;DHT22;42455;51.660;5.824;2022-08-14T11:33:52;34.2;47.5
45383;DHT22;42455;51.660;5.824;2022-08-14T11:38:57;34.2;47.0
45383;DHT22;42455;51.660;5.824;2022-08-14T11:44:03;34.3;48.5
45383;DHT22;42455;51.660;5.824;2022-08-14T11:49:09;34.5;47.5
45383;DHT22;42455;51.660;5.824;2022-08-14T11:54:15;34.5;46.0
45383;DHT22;42455;51.660;5.824;2022-08-14T11:59:21;34.5;46.0
45383;DHT22;42455;51.660;5.824;2022-08-14T12:04:28;34.4;46.0
45383;DHT22;42455;51.660;5.824;2022-08-14T12:09:37;34.3;45.5
45383;DHT22;42455;51.660;5.824;2022-08-14T12:14:46;34.4;45.5
45383;DHT22;42455;51.660;5.824;2022-08-14T12:19:48;34.3;45.0
45383;DHT22;42455;51.660;5.824;2022-08-14T12:29:59;34.0;46.0
45383;DHT22;42455;51.660;5.824;2022-08-14T12:35:06;34.2;45.0
45383;DHT22;42455;51.660;5.824;2022-08-14T12:40:12;34.2;45.5
45383;DHT22;42455;51.660;5.824;2022-08-14T12:45:28;34.4;45.5
45383;DHT22;42455;51.660;5.824;2022-08-14T12:50:33;34.6;44.0
45383;DHT22;42455;51.660;5.824;2022-08-14T12:55:30;34.6;43.5
45383;DHT22;42455;51.660;5.824;2022-08-14T13:00:44;34.5;43.5
45383;DHT22;42455;51.660;5.824;2022-08-14T13:05:46;34.3;43.5
45383;DHT22;42455;51.660;5.824;2022-08-14T13:10:49;34.3;44.0
45383;DHT22;42455;51.660;5.824;2022-08-14T13:15:54;34.5;43.5
45383;DHT22;42455;51.660;5.824;2022-08-14T13:21:01;34.6;43.5
45383;DHT22;42455;51.660;5.824;2022-08-14T13:31:12;35.0;43.0
45383;DHT22;42455;51.660;5.824;2022-08-14T13:36:17;35.2;43.0
45383;DHT22;42455;51.660;5.824;2022-08-14T13:41:26;35.3;42.5
45383;DHT22;42455;51.660;5.824;2022-08-14T13:46:28;35.4;41.5
45383;DHT22;42455;51.660;5.824;2022-08-14T13:51:36;35.4;42.0
45383;DHT22;42455;51.660;5.824;2022-08-14T13:56:40;35.5;41.5
45383;DHT22;42455;51.660;5.824;2022-08-14T14:01:48;35.5;41.5
45383;DHT22;42455;51.660;5.824;2022-08-14T14:06:53;35.3;42.5
45383;DHT22;42455;51.660;5.824;2022-08-14T14:11:59;35.3;42.0
45383;DHT22;42455;51.660;5.824;2022-08-14T14:17:06;35.1;42.0
45383;DHT22;42455;51.660;5.824;2022-08-14T14:22:13;34.9;42.0
45383;DHT22;42455;51.660;5.824;2022-08-14T14:27:18;34.8;42.0
45383;DHT22;42455;51.660;5.824;2022-08-14T14:32:29;34.8;42.5
45383;DHT22;42455;51.660;5.824;2022-08-14T14:37:30;34.9;42.0
45383;DHT22;42455;51.660;5.824;2022-08-14T14:42:46;35.0;41.0
45383;DHT22;42455;51.660;5.824;2022-08-14T14:47:45;35.1;41.0
45383;DHT22;42455;51.660;5.824;2022-08-14T14:52:49;35.2;41.0
45383;DHT22;42455;51.660;5.824;2022-08-14T14:57:57;35.2;40.5
45383;DHT22;42455;51.660;5.824;2022-08-14T15:03:01;35.4;41.0
45383;DHT22;42455;51.660;5.824;2022-08-14T15:08:07;35.5;40.5
45383;DHT22;42455;51.660;5.824;2022-08-14T15:13:14;35.6;40.5
45383;DHT22;42455;51.660;5.824;2022-08-14T15:18:20;35.5;41.0
45383;DHT22;42455;51.660;5.824;2022-08-14T15:23:26;35.5;41.0
45383;DHT22;42455;51.660;5.824;2022-08-14T15:28:32;35.4;41.0
45383;DHT22;42455;51.660;5.824;2022-08-14T15:33:37;35.4;41.5
45383;DHT22;42455;51.660;5.824;2022-08-14T15:38:44;35.3;41.0
45383;DHT22;42455;51.660;5.824;2022-08-14T15:43:49;35.2;42.5
45383;DHT22;42455;51.660;5.824;2022-08-14T15:48:55;35.1;42.0
45383;DHT22;42455;51.660;5.824;2022-08-14T15:54:01;35.0;42.0
45383;DHT22;42455;51.660;5.824;2022-08-14T15:59:08;34.7;42.5
45383;DHT22;42455;51.660;5.824;2022-08-14T16:04:14;34.3;44.5
45383;DHT22;42455;51.660;5.824;2022-08-14T16:09:20;34.0;45.0
45383;DHT22;42455;51.660;5.824;2022-08-14T16:14:26;33.7;45.0
45383;DHT22;42455;51.660;5.824;2022-08-14T16:19:34;33.4;47.0
45383;DHT22;42455;51.660;5.824;2022-08-14T16:24:41;33.1;47.0
45383;DHT22;42455;51.660;5.824;2022-08-14T16:29:44;32.9;47.0
45383;DHT22;42455;51.660;5.824;2022-08-14T16:34:50;32.7;48.0
45383;DHT22;42455;51.660;5.824;2022-08-14T16:39:57;32.5;49.0
45383;DHT22;42455;51.660;5.824;2022-08-14T16:45:03;32.4;49.5
45383;DHT22;42455;51.660;5.824;2022-08-14T16:50:09;32.3;50.5
45383;DHT22;42455;51.660;5.824;2022-08-14T16:55:16;32.3;51.0
45383;DHT22;42455;51.660;5.824;2022-08-14T17:00:33;32.4;52.5
45383;DHT22;42455;51.660;5.824;2022-08-14T17:05:27;32.5;51.5
45383;DHT22;42455;51.660;5.824;2022-08-14T17:10:41;32.6;51.0
45383;DHT22;42455;51.660;5.824;2022-08-14T17:15:40;32.7;50.0
45383;DHT22;42455;51.660;5.824;2022-08-14T17:20:46;32.8;49.5
45383;DHT22;42455;51.660;5.824;2022-08-14T17:25:52;32.8;49.5
45383;DHT22;42455;51.660;5.824;2022-08-14T17:31:00;32.8;50.5
45383;DHT22;42455;51.660;5.824;2022-08-14T17:36:10;32.9;50.0
45383;DHT22;42455;51.660;5.824;2022-08-14T17:41:17;32.8;49.5
45383;DHT22;42455;51.660;5.824;2022-08-14T17:46:34;32.8;49.5
45383;DHT22;42455;51.660;5.824;2022-08-14T17:51:21;32.7;50.0
45383;DHT22;42455;51.660;5.824;2022-08-14T17:56:28;32.5;50.5
45383;DHT22;42455;51.660;5.824;2022-08-14T18:01:36;32.3;50.5
45383;DHT22;42455;51.660;5.824;2022-08-14T18:06:40;32.2;50.5
45383;DHT22;42455;51.660;5.824;2022-08-14T18:11:46;31.9;50.5
45383;DHT22;42455;51.660;5.824;2022-08-14T18:16:54;31.7;51.0
45383;DHT22;42455;51.660;5.824;2022-08-14T18:22:00;31.5;51.5
45383;DHT22;42455;51.660;5.824;2022-08-14T18:27:11;31.3;52.0
45383;DHT22;42455;51.660;5.824;2022-08-14T18:32:39;31.1;52.0
45383;DHT22;42455;51.660;5.824;2022-08-14T18:37:19;30.9;52.5
45383;DHT22;42455;51.660;5.824;2022-08-14T18:42:46;30.6;53.0
45383;DHT22;42455;51.660;5.824;2022-08-14T18:47:30;30.4;54.0
45383;DHT22;42455;51.660;5.824;2022-08-14T18:52:43;30.2;54.5
45383;DHT22;42455;51.660;5.824;2022-08-14T18:58:10;29.9;55.0
45383;DHT22;42455;51.660;5.824;2022-08-14T19:02:48;29.7;56.0
45383;DHT22;42455;51.660;5.824;2022-08-14T19:08:20;29.4;56.5
45383;DHT22;42455;51.660;5.824;2022-08-14T19:13:05;29.2;57.5
45383;DHT22;42455;51.660;5.824;2022-08-14T19:18:23;29.0;58.0
45383;DHT22;42455;51.660;5.824;2022-08-14T19:23:17;28.8;58.5
45383;DHT22;42455;51.660;5.824;2022-08-14T19:28:25;28.6;59.0
45383;DHT22;42455;51.660;5.824;2022-08-14T19:33:55;28.4;59.5
45383;DHT22;42455;51.660;5.824;2022-08-14T19:38:52;28.2;60.0
45383;DHT22;42455;51.660;5.824;2022-08-14T19:43:36;28.1;60.5
45383;DHT22;42455;51.660;5.824;2022-08-14T19:48:48;27.9;61.0
45383;DHT22;42455;51.660;5.824;2022-08-14T19:54:00;27.8;61.5
45383;DHT22;42455;51.660;5.824;2022-08-14T19:58:55;27.7;61.5
45383;DHT22;42455;51.660;5.824;2022-08-14T20:04:02;27.6;62.0
45383;DHT22;42455;51.660;5.824;2022-08-14T20:09:10;27.5;62.0
45383;DHT22;42455;51.660;5.824;2022-08-14T20:14:15;27.5;62.5
45383;DHT22;42455;51.660;5.824;2022-08-14T20:19:21;27.4;63.0
45383;DHT22;42455;51.660;5.824;2022-08-14T20:24:36;27.3;63.5
45383;DHT22;42455;51.660;5.824;2022-08-14T20:29:32;27.2;63.5
45383;DHT22;42455;51.660;5.824;2022-08-14T20:34:39;27.1;64.0
45383;DHT22;42455;51.660;5.824;2022-08-14T20:39:45;26.9;64.5
45383;DHT22;42455;51.660;5.824;2022-08-14T20:44:51;26.8;65.0
45383;DHT22;42455;51.660;5.824;2022-08-14T20:50:10;26.8;66.0
45383;DHT22;42455;51.660;5.824;2022-08-14T20:55:20;26.7;65.5
45383;DHT22;42455;51.660;5.824;2022-08-14T21:00:10;26.6;65.5
45383;DHT22;42455;51.660;5.824;2022-08-14T21:05:17;26.6;65.5
45383;DHT22;42455;51.660;5.824;2022-08-14T21:10:24;26.5;66.5
45383;DHT22;42455;51.660;5.824;2022-08-14T21:15:28;26.5;67.0
45383;DHT22;42455;51.660;5.824;2022-08-14T21:20:35;26.4;67.5
45383;DHT22;42455;51.660;5.824;2022-08-14T21:25:39;26.3;67.5
45383;DHT22;42455;51.660;5.824;2022-08-14T21:30:46;26.2;68.0
45383;DHT22;42455;51.660;5.824;2022-08-14T21:35:53;26.1;68.0
45383;DHT22;42455;51.660;5.824;2022-08-14T21:41:00;26.0;69.0
45383;DHT22;42455;51.660;5.824;2022-08-14T21:46:04;25.9;69.0
45383;DHT22;42455;51.660;5.824;2022-08-14T21:51:10;25.8;69.5
45383;DHT22;42455;51.660;5.824;2022-08-14T21:56:17;25.7;69.5
45383;DHT22;42455;51.660;5.824;2022-08-14T22:01:23;25.7;69.5
45383;DHT22;42455;51.660;5.824;2022-08-14T22:06:29;25.6;70.0
45383;DHT22;42455;51.660;5.824;2022-08-14T22:11:36;25.6;70.0
45383;DHT22;42455;51.660;5.824;2022-08-14T22:16:43;25.5;70.5
45383;DHT22;42455;51.660;5.824;2022-08-14T22:21:48;25.5;70.5
45383;DHT22;42455;51.660;5.824;2022-08-14T22:26:54;25.4;70.5
45383;DHT22;42455;51.660;5.824;2022-08-14T22:32:00;25.3;71.0
45383;DHT22;42455;51.660;5.824;2022-08-14T22:37:06;25.3;71.0
45383;DHT22;42455;51.660;5.824;2022-08-14T22:42:12;25.3;71.0
45383;DHT22;42455;51.660;5.824;2022-08-14T22:47:19;25.2;71.5
45383;DHT22;42455;51.660;5.824;2022-08-14T22:52:25;25.1;71.5
45383;DHT22;42455;51.660;5.824;2022-08-14T22:57:31;25.1;72.0
45383;DHT22;42455;51.660;5.824;2022-08-14T23:02:37;25.0;72.0
45383;DHT22;42455;51.660;5.824;2022-08-14T23:07:44;25.0;72.5
45383;DHT22;42455;51.660;5.824;2022-08-14T23:12:50;24.9;72.5
45383;DHT22;42455;51.660;5.824;2022-08-14T23:17:55;24.9;72.5
45383;DHT22;42455;51.660;5.824;2022-08-14T23:23:00;24.8;72.5
45383;DHT22;42455;51.660;5.824;2022-08-14T23:28:07;24.7;73.0
45383;DHT22;42455;51.660;5.824;2022-08-14T23:33:13;24.7;73.5
45383;DHT22;42455;51.660;5.824;2022-08-14T23:38:18;24.6;73.5
45383;DHT22;42455;51.660;5.824;2022-08-14T23:43:24;24.5;74.0
45383;DHT22;42455;51.660;5.824;2022-08-14T23:48:30;24.5;74.0
45383;DHT22;42455;51.660;5.824;2022-08-14T23:58:43;24.3;74.5
